Time;durP1;ratioP1;P1;durP2;ratioP2;P2;SDS_P1;SDS_P2;PMS_P1;PMS_P2;Temp;Humidity;BMP_temperature;BMP_pressure;BME280_temperature;BME280_humidity;BME280_pressure;Samples;Min_cycle;Max_cycle;Signal;HPM_P1;HPM_P2
2022/11/17 00:01:27;;;;;;;2.33;1.98;;;;;;;19.89;54.84;95386.63;10372844;28;20054;-56
2022/11/17 00:06:46;;;;;;;3.05;2.20;;;;;;;19.89;54.98;95395.53;10362187;28;20062;-59
2022/11/17 00:17:46;;;;;;;2.05;1.85;;;;;;;19.85;54.95;95386.56;10373705;28;20060;-58
2022/11/17 00:23:06;;;;;;;2.78;2.20;;;;;;;19.84;54.81;95376.16;10361849;28;20045;-58
2022/11/17 00:28:25;;;;;;;3.05;2.17;;;;;;;19.83;54.92;95372.63;10381192;28;20049;-58
2022/11/17 00:39:23;;;;;;;2.15;1.88;;;;;;;19.80;54.83;95356.38;10368462;28;20164;-59
2022/11/17 00:44:42;;;;;;;2.28;1.92;;;;;;;19.79;54.89;95341.31;10373163;28;20100;-58
2022/11/17 00:50:02;;;;;;;2.42;1.80;;;;;;;19.79;54.92;95344.00;10371508;28;20049;-58
2022/11/17 00:55:21;;;;;;;2.78;2.00;;;;;;;19.76;54.88;95353.63;10372253;28;20054;-58
2022/11/17 01:00:41;;;;;;;2.47;2.08;;;;;;;19.75;54.88;95339.31;10372747;28;20045;-59
2022/11/17 01:06:12;;;;;;;3.35;1.98;;;;;;;19.74;54.76;95323.47;10372731;28;20080;-58
2022/11/17 01:11:32;;;;;;;2.42;1.75;;;;;;;19.74;54.81;95339.69;10360033;28;20061;-58
2022/11/17 01:16:52;;;;;;;2.75;2.00;;;;;;;19.71;54.87;95346.56;10385205;28;20488;-57
2022/11/17 01:22:12;;;;;;;1.85;1.75;;;;;;;19.70;54.82;95342.31;10371527;28;20050;-58
2022/11/17 01:27:31;;;;;;;1.75;1.60;;;;;;;19.70;54.90;95345.00;10371395;28;20054;-57
2022/11/17 01:32:51;;;;;;;2.75;1.80;;;;;;;19.68;54.92;95346.47;10365101;28;20084;-59
2022/11/17 01:38:10;;;;;;;2.25;2.05;;;;;;;19.68;54.86;95338.38;10378183;28;20057;-58
2022/11/17 01:43:47;;;;;;;2.00;1.85;;;;;;;19.68;54.75;95335.69;10368976;28;20062;-58
2022/11/17 01:49:12;;;;;;;2.30;1.77;;;;;;;19.64;54.88;95319.44;10362663;28;20132;-58
2022/11/17 01:54:34;;;;;;;1.70;1.50;;;;;;;19.64;54.75;95324.84;10366275;28;20116;-58
2022/11/17 01:59:58;;;;;;;1.90;1.70;;;;;;;19.63;54.77;95319.78;10368179;28;20081;-58
2022/11/17 02:05:21;;;;;;;3.85;1.83;;;;;;;19.62;54.76;95310.09;10332392;28;20058;-58
2022/11/17 02:10:40;;;;;;;2.78;1.90;;;;;;;19.61;54.65;95319.38;10338999;28;20058;-58
2022/11/17 02:16:00;;;;;;;2.10;1.80;;;;;;;19.60;54.65;95317.78;10331513;28;20465;-59
2022/11/17 02:21:28;;;;;;;1.92;1.70;;;;;;;19.59;54.68;95327.81;10318793;28;20498;-59
2022/11/17 02:27:06;;;;;;;2.17;1.85;;;;;;;19.58;54.67;95314.66;10364030;28;20085;-58
2022/11/17 02:32:31;;;;;;;2.70;1.80;;;;;;;19.56;54.62;95321.22;10351520;28;20178;-58
2022/11/17 02:38:13;;;;;;;2.13;1.80;;;;;;;19.55;54.68;95310.78;10334507;28;20305;-58
2022/11/17 02:49:25;;;;;;;1.85;1.75;;;;;;;19.53;54.62;95308.44;10345777;28;20065;-58
2022/11/17 02:54:44;;;;;;;3.40;1.90;;;;;;;19.52;54.60;95309.59;10359101;28;20564;-58
2022/11/17 03:00:06;;;;;;;1.70;1.60;;;;;;;19.51;54.56;95305.31;10389711;28;20605;-58
2022/11/17 03:05:58;;;;;;;1.73;1.63;;;;;;;19.51;54.64;95293.72;10376475;28;20053;-58
2022/11/17 03:11:22;;;;;;;2.10;1.75;;;;;;;19.49;54.74;95296.78;10365090;28;20050;-59
2022/11/17 03:16:56;;;;;;;1.60;1.50;;;;;;;19.49;54.70;95306.81;10342874;28;20049;-59
2022/11/17 03:22:26;;;;;;;2.08;1.65;;;;;;;19.46;54.64;95313.69;10373134;28;20057;-59
2022/11/17 03:27:48;;;;;;;2.25;1.75;;;;;;;19.45;54.74;95314.06;10348911;28;20504;-58
2022/11/17 03:33:14;;;;;;;1.92;1.67;;;;;;;19.45;54.57;95312.16;10388012;28;20050;-53
2022/11/17 03:38:40;;;;;;;1.98;1.63;;;;;;;19.44;54.72;95309.81;10340693;28;20058;-58
2022/11/17 03:44:02;;;;;;;1.92;1.75;;;;;;;19.42;54.69;95302.06;10355910;28;20058;-58
2022/11/17 03:50:05;;;;;;;1.52;1.42;;;;;;;19.42;54.58;95295.88;10372978;28;20057;-58
2022/11/17 03:55:26;;;;;;;1.98;1.65;;;;;;;19.40;54.55;95298.94;10326520;28;20128;-58
2022/11/17 04:00:48;;;;;;;1.60;1.50;;;;;;;19.40;54.56;95300.88;10371807;28;20049;-59
2022/11/17 04:06:08;;;;;;;1.65;1.55;;;;;;;19.38;54.62;95303.91;10338624;28;20058;-58
2022/11/17 04:17:05;;;;;;;2.38;1.80;;;;;;;19.36;54.57;95295.38;10334826;28;20104;-58
2022/11/17 04:22:25;;;;;;;2.00;1.55;;;;;;;19.34;54.63;95303.06;10347009;28;20042;-59
2022/11/17 04:33:23;;;;;;;1.70;1.60;;;;;;;19.32;54.58;95292.63;10373035;28;20386;-58
2022/11/17 04:38:44;;;;;;;2.15;1.95;;;;;;;19.31;54.59;95296.47;10355838;28;20054;-58
2022/11/17 04:44:04;;;;;;;1.75;1.65;;;;;;;19.31;54.67;95295.72;10359838;28;20054;-56
2022/11/17 04:49:24;;;;;;;2.20;1.60;;;;;;;19.30;54.56;95294.13;10370434;28;20058;-58
2022/11/17 04:54:44;;;;;;;1.60;1.50;;;;;;;19.28;54.62;95291.78;10363600;28;20084;-58
2022/11/17 05:00:04;;;;;;;2.13;1.70;;;;;;;19.27;54.58;95282.13;10368461;28;20099;-56
2022/11/17 05:05:24;;;;;;;1.70;1.55;;;;;;;19.27;54.64;95292.94;10358824;28;20042;-58
2022/11/17 05:22:00;;;;;;;1.60;1.50;;;;;;;19.24;54.69;95284.78;10332480;28;20046;-58
2022/11/17 05:27:20;;;;;;;1.75;1.50;;;;;;;19.24;54.66;95276.66;10331907;28;20528;-58
2022/11/17 05:32:40;;;;;;;1.50;1.33;;;;;;;19.24;54.66;95268.56;10321534;28;20109;-58
2022/11/17 05:38:00;;;;;;;1.65;1.55;;;;;;;19.24;54.58;95258.53;10335339;28;20528;-57
2022/11/17 05:43:19;;;;;;;1.70;1.60;;;;;;;19.24;54.71;95258.53;10333057;28;20050;-59
2022/11/17 05:48:39;;;;;;;1.50;1.40;;;;;;;19.24;54.63;95246.97;10341176;28;20077;-55
2022/11/17 05:53:58;;;;;;;1.75;1.40;;;;;;;19.26;54.74;95242.00;10342194;28;20046;-58
2022/11/17 05:59:24;;;;;;;1.83;1.55;;;;;;;19.26;54.77;95255.50;10371959;28;20061;-58
2022/11/17 06:04:45;;;;;;;1.60;1.50;;;;;;;19.27;54.79;95257.06;10370957;28;20053;-59
2022/11/17 06:10:05;;;;;;;1.70;1.60;;;;;;;19.28;54.75;95247.81;10362200;28;20053;-59
2022/11/17 06:15:25;;;;;;;1.73;1.58;;;;;;;19.30;55.02;95234.72;10379601;28;20065;-59
2022/11/17 06:20:47;;;;;;;1.70;1.60;;;;;;;19.31;55.03;95255.19;10364532;28;20049;-59
2022/11/17 06:26:08;;;;;;;1.50;1.40;;;;;;;19.31;55.07;95264.06;10378999;28;20104;-59
2022/11/17 06:31:27;;;;;;;1.88;1.48;;;;;;;19.33;55.12;95271.81;10378594;28;20061;-59
2022/11/17 06:36:47;;;;;;;4.35;1.27;;;;;;;19.35;55.11;95272.25;10377437;28;20112;-58
2022/11/17 06:42:06;;;;;;;1.60;1.50;;;;;;;19.36;55.18;95268.38;10378393;28;20104;-58
2022/11/17 06:47:28;;;;;;;1.42;1.33;;;;;;;19.38;55.37;95286.94;10391455;28;20038;-58
2022/11/17 06:52:47;;;;;;;1.60;1.50;;;;;;;19.39;55.27;95302.78;10391215;28;20038;-59
2022/11/17 06:58:10;;;;;;;8.38;6.70;;;;;;;18.87;48.53;95293.34;10353060;28;20062;-58
2022/11/17 07:03:29;;;;;;;2.60;2.40;;;;;;;19.00;51.87;95286.66;10326185;28;20564;-58
2022/11/17 07:08:49;;;;;;;6.13;4.10;;;;;;;19.15;52.08;95269.59;10363676;28;20123;-58
2022/11/17 07:14:09;;;;;;;4.38;3.20;;;;;;;19.25;52.05;95280.91;10389414;28;20552;-53
2022/11/17 07:19:28;;;;;;;3.50;3.17;;;;;;;19.30;52.05;95259.81;10384660;28;20049;-58
2022/11/17 07:24:48;;;;;;;2.97;2.67;;;;;;;19.34;52.07;95255.25;10360391;28;20410;-59
2022/11/17 07:30:09;;;;;;;3.05;2.78;;;;;;;19.36;52.17;95255.66;10335622;28;20050;-59
2022/11/17 07:35:28;;;;;;;4.50;2.80;;;;;;;19.38;52.32;95258.00;10333159;28;20062;-58
2022/11/17 07:40:48;;;;;;;4.28;2.80;;;;;;;19.42;52.30;95263.47;10342573;28;20077;-55
2022/11/17 07:46:10;;;;;;;3.45;2.70;;;;;;;19.43;52.57;95276.63;10328810;28;20050;-58
2022/11/17 07:51:30;;;;;;;2.65;2.45;;;;;;;19.47;52.75;95282.09;10336162;28;20488;-58
2022/11/17 07:56:49;;;;;;;2.78;2.40;;;;;;;19.48;52.73;95287.13;10388921;28;20057;-59
2022/11/17 08:02:09;;;;;;;2.80;2.50;;;;;;;19.50;52.92;95276.75;10387800;28;20040;-59
2022/11/17 08:07:29;;;;;;;2.42;2.22;;;;;;;19.52;53.12;95258.25;10384875;28;20046;-58
2022/11/17 08:12:53;;;;;;;3.42;2.30;;;;;;;19.54;53.47;95266.78;10395308;28;20433;-58
2022/11/17 08:18:12;;;;;;;2.50;2.30;;;;;;;19.55;53.53;95252.13;10369359;28;20100;-58
2022/11/17 08:23:33;;;;;;;2.50;2.30;;;;;;;19.58;53.74;95255.25;10374090;28;20103;-59
2022/11/17 08:28:52;;;;;;;2.20;2.00;;;;;;;19.59;53.82;95264.91;10386018;28;20054;-59
2022/11/17 08:34:14;;;;;;;2.20;2.00;;;;;;;19.62;54.13;95261.47;10373123;28;20109;-59
2022/11/17 08:39:33;;;;;;;4.97;2.28;;;;;;;19.64;53.56;95260.00;10373620;28;20096;-59
2022/11/17 08:44:53;;;;;;;3.88;2.40;;;;;;;19.66;53.27;95270.41;10386334;28;20037;-59
2022/11/17 08:50:12;;;;;;;3.70;2.47;;;;;;;19.67;53.49;95266.59;10372401;28;20469;-58
2022/11/17 08:55:36;;;;;;;2.67;2.40;;;;;;;19.67;53.58;95269.28;10372196;28;20062;-58
2022/11/17 09:00:55;;;;;;;3.05;2.72;;;;;;;19.71;51.05;95280.94;10396851;28;20041;-59
2022/11/17 09:06:16;;;;;;;5.60;3.65;;;;;;;19.75;49.95;95287.97;10374299;28;20049;-56
2022/11/17 09:11:35;;;;;;;5.07;4.20;;;;;;;19.80;48.31;95300.41;10372061;28;20497;-57
2022/11/17 09:16:55;;;;;;;4.90;4.15;;;;;;;19.83;47.57;95310.50;10386557;28;20042;-57
2022/11/17 09:22:14;;;;;;;5.55;4.35;;;;;;;19.85;46.79;95299.31;10372202;28;20058;-58
2022/11/17 09:27:33;;;;;;;4.88;4.38;;;;;;;19.83;43.69;95299.69;10372353;28;20464;-58
2022/11/17 09:32:54;;;;;;;5.50;3.70;;;;;;;19.79;45.42;95293.44;10384631;28;20119;-58
2022/11/17 09:38:13;;;;;;;4.70;4.00;;;;;;;19.82;45.13;95303.53;10385176;28;20057;-60
2022/11/17 09:43:34;;;;;;;4.22;3.83;;;;;;;19.86;45.11;95303.59;10371408;28;20053;-58
2022/11/17 09:49:33;;;;;;;5.25;3.65;;;;;;;19.83;44.96;95305.09;10391434;28;20497;-55
2022/11/17 09:54:56;;;;;;;5.88;3.67;;;;;;;19.85;46.00;95299.31;10366780;28;20456;-58
2022/11/17 10:00:18;;;;;;;7.57;3.85;;;;;;;19.84;46.55;95300.47;10360133;28;20378;-60
2022/11/17 10:05:40;;;;;;;5.63;3.30;;;;;;;19.84;47.01;95300.47;10383432;28;20054;-60
2022/11/17 10:11:30;;;;;;;4.00;3.22;;;;;;;19.85;47.57;95308.19;10352754;28;20069;-58
2022/11/17 10:16:46;;;;;;;5.72;3.13;;;;;;;19.87;47.88;95313.25;10376742;28;20046;-57
2022/11/17 10:22:17;;;;;;;7.78;3.33;;;;;;;19.87;48.35;95322.13;10363671;28;20127;-57
2022/11/17 10:27:42;;;;;;;4.30;3.15;;;;;;;19.89;48.50;95324.47;10359404;28;20405;-58
2022/11/17 10:33:03;;;;;;;7.95;6.28;;;;;;;19.66;44.17;95321.75;10373072;28;20487;-57
2022/11/17 10:38:24;;;;;;;5.00;3.75;;;;;;;19.68;47.09;95322.97;10392176;28;20038;-58
2022/11/17 10:44:01;;;;;;;8.77;4.03;;;;;;;19.78;47.37;95323.50;10379292;28;20054;-57
2022/11/17 10:49:25;;;;;;;5.07;4.57;;;;;;;19.83;45.36;95318.59;10378960;28;20050;-57
2022/11/17 10:54:45;;;;;;;11.93;7.50;;;;;;;19.86;43.35;95311.72;10389510;28;20053;-58
2022/11/17 11:00:22;;;;;;;9.65;8.20;;;;;;;19.40;41.78;95298.94;10391421;28;20042;-58
2022/11/17 11:05:55;;;;;;;7.65;6.78;;;;;;;19.47;42.62;95288.25;10378701;28;20058;-58
2022/11/17 11:11:44;;;;;;;7.60;6.80;;;;;;;19.63;42.37;95271.94;10377819;28;20054;-57
2022/11/17 11:17:12;;;;;;;7.38;6.63;;;;;;;19.74;42.94;95281.03;10336660;28;20058;-58
2022/11/17 11:22:55;;;;;;;9.60;6.47;;;;;;;19.81;42.47;95277.66;10350304;28;20038;-58
2022/11/17 11:28:33;;;;;;;10.40;7.35;;;;;;;19.72;42.77;95269.81;10336900;28;20061;-59
2022/11/17 11:34:05;;;;;;;10.05;6.07;;;;;;;19.78;44.44;95272.97;10337079;28;20050;-59
2022/11/17 11:39:34;;;;;;;7.80;6.07;;;;;;;19.82;44.59;95257.59;10415551;28;20049;-58
2022/11/17 11:45:19;;;;;;;8.77;6.95;;;;;;;19.85;45.35;95248.75;10417873;28;20059;-58
2022/11/17 11:50:55;;;;;;;7.70;6.80;;;;;;;19.88;46.26;95228.34;10417109;28;20057;-56
2022/11/17 11:56:15;;;;;;;7.63;6.50;;;;;;;19.89;45.94;95221.78;10424048;28;20110;-57
2022/11/17 12:02:10;;;;;;;6.28;5.38;;;;;;;19.89;46.68;95211.75;10417030;28;20052;-57
2022/11/17 12:07:40;;;;;;;6.03;5.43;;;;;;;19.90;47.36;95199.81;10398982;28;20057;-58
2022/11/17 12:13:00;;;;;;;7.10;5.30;;;;;;;19.90;47.92;95210.63;10376320;28;20054;-58
2022/11/17 12:18:20;;;;;;;7.50;5.00;;;;;;;19.92;48.45;95212.97;10360084;28;20575;-60
2022/11/17 12:23:45;;;;;;;6.45;4.90;;;;;;;19.92;48.76;95204.84;10374708;28;20489;-60
2022/11/17 12:29:20;;;;;;;5.68;4.90;;;;;;;19.94;48.99;95205.25;10375221;28;20065;-58
2022/11/17 12:34:40;;;;;;;9.75;5.70;;;;;;;19.94;47.89;95197.16;10387728;28;20071;-60
2022/11/17 12:40:10;;;;;;;5.68;4.32;;;;;;;19.97;48.67;95184.81;10374845;28;20076;-59
2022/11/17 12:45:52;;;;;;;5.07;4.28;;;;;;;19.96;48.79;95189.47;10411684;28;20065;-60
2022/11/17 12:51:26;;;;;;;8.07;3.95;;;;;;;19.97;48.92;95184.81;10428399;28;20049;-58
2022/11/17 12:56:59;;;;;;;6.53;4.30;;;;;;;19.97;49.05;95191.00;10414688;28;20421;-59
2022/11/17 13:02:40;;;;;;;11.98;4.70;;;;;;;19.99;49.24;95186.00;10414481;28;20053;-60
2022/11/17 13:08:12;;;;;;;10.52;5.25;;;;;;;20.00;49.38;95176.00;10383030;28;20058;-58
2022/11/17 13:13:31;;;;;;;13.00;6.03;;;;;;;20.01;49.81;95178.31;10373974;28;20058;-59
2022/11/17 13:18:51;;;;;;;16.83;9.13;;;;;;;19.98;46.52;95176.34;10372937;28;20061;-59
2022/11/17 13:24:10;;;;;;;13.13;6.93;;;;;;;19.98;48.69;95156.66;10371417;28;20046;-57
2022/11/17 13:29:30;;;;;;;18.60;7.40;;;;;;;20.00;49.41;95160.56;10373238;28;20493;-66
2022/11/17 13:34:55;;;;;;;15.98;6.43;;;;;;;20.05;49.87;95152.13;10373095;28;20137;-59
2022/11/17 13:40:21;;;;;;;21.15;6.82;;;;;;;20.08;49.95;95148.69;10373136;28;20057;-58
2022/11/17 13:45:42;;;;;;;18.30;6.55;;;;;;;20.09;50.40;95144.84;10424544;28;20527;-59
2022/11/17 13:51:37;;;;;;;17.33;6.65;;;;;;;20.12;50.96;95149.50;10412913;28;20057;-58
2022/11/17 13:57:04;;;;;;;15.25;6.35;;;;;;;20.14;51.53;95152.63;10399412;28;20092;-59
2022/11/17 14:02:25;;;;;;;16.35;6.65;;;;;;;20.17;52.20;95156.53;10397948;28;20057;-61
2022/11/17 14:07:45;;;;;;;12.40;5.90;;;;;;;20.17;52.74;95156.53;10372851;28;20064;-59
2022/11/17 14:13:05;;;;;;;13.80;6.47;;;;;;;20.20;52.74;95153.06;10357903;28;20054;-57
2022/11/17 14:18:42;;;;;;;12.27;6.00;;;;;;;20.22;52.75;95160.81;10371841;28;20547;-61
2022/11/17 14:24:04;;;;;;;14.50;5.75;;;;;;;20.24;52.96;95156.59;10357636;28;20053;-57
2022/11/17 14:29:26;;;;;;;16.85;5.78;;;;;;;20.26;53.60;95165.13;10384957;28;20042;-58
2022/11/17 14:34:46;;;;;;;16.52;6.00;;;;;;;20.30;53.96;95155.13;10377565;28;20099;-61
2022/11/17 14:40:11;;;;;;;13.07;6.28;;;;;;;20.32;54.32;95152.81;10379356;28;20056;-60
2022/11/17 14:45:34;;;;;;;11.43;5.50;;;;;;;20.35;54.79;95162.16;10416158;28;20061;-59
2022/11/17 14:50:58;;;;;;;11.20;5.68;;;;;;;20.37;54.95;95162.56;10419478;28;20078;-58
2022/11/17 14:56:19;;;;;;;13.60;6.50;;;;;;;20.38;55.09;95172.22;10419126;28;20062;-60
2022/11/17 15:01:39;;;;;;;12.93;5.90;;;;;;;20.40;55.21;95164.50;10378852;28;20077;-57
2022/11/17 15:06:59;;;;;;;11.43;5.75;;;;;;;20.43;55.78;95176.53;10391481;28;20034;-58
2022/11/17 15:12:18;;;;;;;10.65;5.80;;;;;;;20.45;55.96;95171.53;10363149;28;20054;-56
2022/11/17 15:17:38;;;;;;;17.27;6.97;;;;;;;20.46;56.04;95178.47;10377618;28;20053;-56
2022/11/17 15:22:58;;;;;;;13.45;11.00;;;;;;;20.41;51.30;95181.53;10377349;28;20514;-61
2022/11/17 15:28:17;;;;;;;11.85;8.65;;;;;;;20.36;52.49;95174.50;10377206;28;20058;-63
2022/11/17 15:33:39;;;;;;;23.85;8.60;;;;;;;20.38;53.19;95182.25;10377216;28;20409;-57
2022/11/17 15:38:58;;;;;;;18.15;6.80;;;;;;;20.41;53.50;95176.13;10376112;28;20065;-58
2022/11/17 15:44:18;;;;;;;15.52;7.13;;;;;;;20.42;54.18;95178.44;10402890;28;20056;-61
2022/11/17 15:49:37;;;;;;;13.23;7.60;;;;;;;20.45;54.25;95177.72;10417705;28;20053;-60
2022/11/17 15:54:57;;;;;;;11.68;7.30;;;;;;;20.46;53.78;95192.78;10400307;28;20062;-57
2022/11/17 16:00:17;;;;;;;17.35;6.97;;;;;;;20.45;54.00;95185.81;10375692;28;20058;-59
2022/11/17 16:05:36;;;;;;;16.05;7.60;;;;;;;20.45;54.38;95172.31;10361287;28;20096;-59
2022/11/17 16:10:55;;;;;;;13.48;7.18;;;;;;;20.46;54.88;95181.97;10375861;28;20436;-62
2022/11/17 16:16:15;;;;;;;11.30;6.85;;;;;;;20.47;54.84;95180.06;10388625;28;20053;-58
2022/11/17 16:21:34;;;;;;;11.75;8.63;;;;;;;20.49;55.05;95177.75;10375418;28;20045;-59
2022/11/17 16:26:54;;;;;;;10.32;7.25;;;;;;;20.48;54.60;95184.28;10375191;28;20053;-58
2022/11/17 16:32:14;;;;;;;14.13;7.00;;;;;;;20.49;54.88;95188.56;10387880;28;20070;-61
2022/11/17 16:37:33;;;;;;;20.17;8.02;;;;;;;20.48;55.14;95184.28;10374614;28;20053;-57
2022/11/17 16:42:52;;;;;;;20.63;7.03;;;;;;;20.49;55.62;95185.88;10390038;28;20076;-60
2022/11/17 16:48:12;;;;;;;16.27;8.40;;;;;;;20.50;56.04;95184.72;10428852;28;20569;-55
2022/11/17 16:53:31;;;;;;;24.45;16.13;;;;;;;20.45;52.40;95190.47;10379957;28;20049;-58
2022/11/17 16:58:51;;;;;;;23.90;17.73;;;;;;;19.63;47.09;95192.81;10373535;28;20062;-59
2022/11/17 17:04:12;;;;;;;27.58;17.52;;;;;;;19.83;49.97;95199.69;10374174;28;20064;-56
2022/11/17 17:09:32;;;;;;;85.10;42.00;;;;;;;19.95;49.47;95199.50;10374005;28;20464;-57
2022/11/17 17:14:51;;;;;;;124.10;58.42;;;;;;;19.97;48.96;95190.22;10373827;28;20064;-59
2022/11/17 17:20:11;;;;;;;110.28;52.63;;;;;;;19.93;48.81;95188.28;10373066;28;20077;-58
2022/11/17 17:25:31;;;;;;;100.75;48.45;;;;;;;19.96;49.05;95189.47;10373385;28;20057;-59
2022/11/17 17:30:54;;;;;;;77.18;40.75;;;;;;;20.01;49.08;95185.66;10373172;28;20057;-59
2022/11/17 17:36:16;;;;;;;58.35;32.08;;;;;;;19.99;49.03;95180.59;10372740;28;20072;-60
2022/11/17 17:41:39;;;;;;;51.15;29.13;;;;;;;20.00;49.20;95184.09;10377749;28;20056;-57
2022/11/17 17:46:58;;;;;;;45.60;25.98;;;;;;;19.99;49.42;95183.31;10401806;28;20054;-58
2022/11/17 17:52:18;;;;;;;44.90;23.08;;;;;;;19.97;49.37;95192.94;10373011;28;20104;-59
2022/11/17 17:57:39;;;;;;;43.60;22.52;;;;;;;19.98;49.40;95186.41;10375840;28;20440;-59
2022/11/17 18:02:59;;;;;;;33.15;19.70;;;;;;;19.95;49.29;95177.88;10372328;28;20065;-60
2022/11/17 18:08:19;;;;;;;34.10;17.02;;;;;;;19.93;49.23;95179.38;10391232;28;20050;-59
2022/11/17 18:13:40;;;;;;;26.45;15.55;;;;;;;19.91;49.20;95181.66;10380796;28;20042;-58
2022/11/17 18:19:03;;;;;;;25.73;15.05;;;;;;;19.90;49.07;95180.88;10380493;28;20053;-60
2022/11/17 18:24:23;;;;;;;27.52;14.80;;;;;;;19.90;49.24;95178.19;10361861;28;20452;-60
2022/11/17 18:29:44;;;;;;;23.75;13.27;;;;;;;19.89;48.74;95183.94;10379933;28;20057;-58
2022/11/17 18:35:04;;;;;;;21.02;13.45;;;;;;;19.85;48.71;95178.50;10379699;28;20050;-60
2022/11/17 18:40:24;;;;;;;20.38;12.77;;;;;;;19.83;48.51;95186.19;10379584;28;20065;-60
2022/11/17 18:45:43;;;;;;;17.77;11.35;;;;;;;19.79;48.57;95179.94;10385330;28;20046;-58
2022/11/17 18:51:05;;;;;;;19.20;12.20;;;;;;;19.77;48.34;95181.47;10378667;28;20054;-59
2022/11/17 18:56:27;;;;;;;17.55;10.27;;;;;;;19.73;48.55;95186.81;10377783;28;20084;-59
2022/11/17 19:01:48;;;;;;;13.88;10.45;;;;;;;19.67;48.15;95188.25;10378484;28;20057;-60
2022/11/17 19:07:08;;;;;;;15.05;9.18;;;;;;;19.70;49.80;95192.94;10378330;28;20053;-57
2022/11/17 19:12:27;;;;;;;24.80;9.18;;;;;;;19.76;50.45;95202.31;10377312;28;20073;-58
2022/11/17 19:17:47;;;;;;;16.70;8.57;;;;;;;19.78;51.09;95208.13;10390766;28;20532;-58
2022/11/17 19:23:07;;;;;;;20.58;9.20;;;;;;;19.82;51.99;95211.66;10391083;28;20061;-58
2022/11/17 19:28:26;;;;;;;10.68;9.43;;;;;;;19.33;43.57;95212.41;10377170;28;20053;-59
2022/11/17 19:33:47;;;;;;;18.88;15.57;;;;;;;18.41;43.04;95201.47;10376930;28;20050;-59
2022/11/17 19:39:06;;;;;;;16.42;14.25;;;;;;;17.82;43.60;95208.66;10377149;28;20057;-59
2022/11/17 19:44:27;;;;;;;13.23;11.90;;;;;;;17.55;45.24;95201.16;10417539;28;20052;-58
2022/11/17 19:49:46;;;;;;;11.32;10.13;;;;;;;18.16;46.28;95185.56;10417636;28;20053;-58
2022/11/17 19:55:06;;;;;;;13.95;12.40;;;;;;;18.42;43.54;95184.94;10417326;28;20072;-58
2022/11/17 20:00:26;;;;;;;12.50;11.30;;;;;;;18.18;42.22;95181.38;10416833;28;20091;-59
2022/11/17 20:05:46;;;;;;;14.27;10.73;;;;;;;18.11;43.19;95169.66;10429895;28;20046;-57
2022/11/17 20:11:08;;;;;;;10.50;9.00;;;;;;;18.42;44.28;95170.66;10415228;28;20095;-58
2022/11/17 20:16:31;;;;;;;10.93;8.13;;;;;;;18.68;44.65;95167.28;10415385;28;20060;-59
2022/11/17 20:21:50;;;;;;;11.88;8.13;;;;;;;18.83;44.69;95168.38;10415289;28;20049;-57
2022/11/17 20:27:11;;;;;;;9.30;7.68;;;;;;;18.94;44.67;95175.50;10416312;28;20056;-58
2022/11/17 20:32:31;;;;;;;10.45;7.53;;;;;;;18.98;45.42;95164.03;10415744;28;20053;-59
2022/11/17 20:37:50;;;;;;;10.82;7.95;;;;;;;19.00;46.11;95169.84;10385752;28;20049;-58
2022/11/17 20:43:10;;;;;;;10.75;8.55;;;;;;;19.01;46.78;95182.94;10392489;28;20049;-58
2022/11/17 20:48:31;;;;;;;10.13;7.68;;;;;;;19.04;47.20;95203.84;10414603;28;20452;-57
2022/11/17 20:53:50;;;;;;;9.20;7.10;;;;;;;19.06;47.86;95206.94;10414372;28;20056;-59
2022/11/17 20:59:10;;;;;;;11.05;7.80;;;;;;;19.07;48.28;95197.72;10414727;28;20049;-58
2022/11/17 21:04:29;;;;;;;8.82;6.97;;;;;;;19.08;48.61;95180.38;10415119;28;20112;-59
2022/11/17 21:09:48;;;;;;;8.32;6.80;;;;;;;19.10;48.97;95199.69;10413908;28;20440;-57
2022/11/17 21:15:08;;;;;;;7.68;6.72;;;;;;;19.11;49.13;95184.25;10414195;28;20056;-57
2022/11/17 21:20:28;;;;;;;7.70;6.82;;;;;;;19.12;49.49;95207.44;10413815;28;20061;-57
2022/11/17 21:25:47;;;;;;;10.80;6.80;;;;;;;19.12;49.93;95221.69;10413735;28;20053;-56
2022/11/17 21:31:17;;;;;;;8.57;6.68;;;;;;;19.13;50.35;95233.28;10407743;28;20065;-57
2022/11/17 21:36:37;;;;;;;7.72;6.47;;;;;;;19.13;50.49;95217.06;10371805;28;20509;-56
2022/11/17 21:41:56;;;;;;;8.63;6.30;;;;;;;19.15;50.70;95223.69;10384204;28;20103;-57
2022/11/17 21:47:17;;;;;;;7.05;6.35;;;;;;;19.13;51.03;95215.19;10434126;28;20041;-58
2022/11/17 21:52:37;;;;;;;8.73;6.50;;;;;;;19.15;51.35;95202.09;10434945;28;20049;-59
2022/11/17 21:57:56;;;;;;;6.75;5.72;;;;;;;19.16;51.57;95197.47;10421371;28;20050;-58
2022/11/17 22:03:15;;;;;;;6.47;5.75;;;;;;;19.16;51.80;95192.06;10421246;28;20046;-58
2022/11/17 22:08:36;;;;;;;7.43;6.20;;;;;;;19.16;52.00;95195.53;10421122;28;20057;-58
2022/11/17 22:13:55;;;;;;;8.90;5.70;;;;;;;19.16;52.28;95203.66;10421020;28;20072;-59
2022/11/17 22:19:15;;;;;;;7.43;5.72;;;;;;;19.17;52.40;95212.53;10419158;28;20061;-56
2022/11/17 22:24:35;;;;;;;6.55;5.57;;;;;;;19.17;52.81;95223.34;10420161;28;20057;-57
2022/11/17 22:29:54;;;;;;;6.97;6.03;;;;;;;19.17;53.04;95220.66;10399229;28;20065;-60
2022/11/17 22:35:13;;;;;;;6.70;5.78;;;;;;;19.16;53.24;95217.16;10379466;28;20042;-59
2022/11/17 22:40:33;;;;;;;6.80;6.00;;;;;;;19.16;53.42;95219.84;10379314;28;20382;-57
2022/11/17 22:45:52;;;;;;;5.78;5.18;;;;;;;19.18;53.50;95227.59;10418348;28;20448;-57
2022/11/17 22:52:01;;;;;;;6.28;5.63;;;;;;;19.17;53.64;95224.13;10419401;28;20049;-57
2022/11/17 22:56:52;;;;;;;7.03;5.30;;;;;;;19.16;53.77;95216.38;10418808;28;20068;-57
2022/11/17 23:02:11;;;;;;;6.07;5.10;;;;;;;19.16;53.93;95211.75;10432488;28;20049;-58
2022/11/17 23:07:31;;;;;;;5.95;4.93;;;;;;;19.15;53.96;95199.41;10432561;28;20037;-58
2022/11/17 23:12:50;;;;;;;5.97;5.07;;;;;;;19.15;53.95;95202.09;10419143;28;20065;-59
2022/11/17 23:18:09;;;;;;;5.72;5.13;;;;;;;19.15;54.06;95202.09;10418922;28;20057;-59
2022/11/17 23:23:36;;;;;;;5.85;5.15;;;;;;;19.15;54.09;95198.59;10413962;28;20050;-59
2022/11/17 23:28:57;;;;;;;6.72;5.32;;;;;;;19.13;54.25;95204.38;10390753;28;20049;-58
2022/11/17 23:34:16;;;;;;;7.43;5.40;;;;;;;19.15;54.50;95223.69;10390414;28;20042;-58
2022/11/17 23:39:36;;;;;;;6.28;5.00;;;;;;;19.13;54.72;95217.06;10390365;28;20041;-59
2022/11/17 23:44:55;;;;;;;7.93;5.20;;;;;;;19.12;54.86;95210.91;10409213;28;20057;-59
2022/11/17 23:50:15;;;;;;;8.20;5.03;;;;;;;19.13;54.85;95203.59;10417742;28;20057;-55
2022/11/17 23:55:34;;;;;;;6.22;5.20;;;;;;;19.11;55.04;95198.56;10426041;28;20099;-59
